createdAt,value
2022-10-03T00:00:04.001Z,5.90
2022-10-03T00:01:03.981Z,5.90
2022-10-03T00:02:04.022Z,5.86
2022-10-03T00:03:03.970Z,5.86
2022-10-03T00:04:03.990Z,5.89
2022-10-03T00:05:03.934Z,5.90
2022-10-03T00:06:03.938Z,5.89
2022-10-03T00:07:03.909Z,5.89
2022-10-03T00:08:03.909Z,5.89
2022-10-03T00:09:03.880Z,5.90
2022-10-03T00:10:03.887Z,5.90
2022-10-03T00:11:03.860Z,5.90
2022-10-03T00:12:03.859Z,5.91
2022-10-03T00:13:03.830Z,5.90
2022-10-03T00:14:03.857Z,5.90
2022-10-03T00:15:03.819Z,5.89
2022-10-03T00:16:03.886Z,5.86
2022-10-03T00:17:03.789Z,5.83
2022-10-03T00:18:03.809Z,5.85
2022-10-03T00:19:03.768Z,5.83
2022-10-03T00:20:03.769Z,5.83
2022-10-03T00:21:03.746Z,5.82
2022-10-03T00:22:03.759Z,5.82
2022-10-03T00:23:03.730Z,5.82
2022-10-03T00:24:03.718Z,5.81
2022-10-03T00:25:03.712Z,5.79
2022-10-03T00:26:03.708Z,5.78
2022-10-03T00:27:03.687Z,5.78
2022-10-03T00:28:03.712Z,5.75
2022-10-03T00:29:03.676Z,5.76
2022-10-03T00:30:03.659Z,5.75
2022-10-03T00:31:03.653Z,5.75
2022-10-03T00:32:03.632Z,5.74
2022-10-03T00:33:03.608Z,5.74
2022-10-03T00:34:03.649Z,5.76
2022-10-03T00:35:03.589Z,5.78
2022-10-03T00:36:03.609Z,5.81
2022-10-03T00:37:03.568Z,5.79
2022-10-03T00:38:03.575Z,5.82
2022-10-03T00:39:03.547Z,5.82
2022-10-03T00:40:03.548Z,5.82
2022-10-03T00:41:03.526Z,5.82
2022-10-03T00:42:03.519Z,5.79
2022-10-03T00:43:03.487Z,5.78
2022-10-03T00:44:03.496Z,5.78
2022-10-03T00:45:03.477Z,5.76
2022-10-03T00:46:03.556Z,5.76
2022-10-03T00:47:03.456Z,5.76
2022-10-03T00:48:03.469Z,5.76
2022-10-03T00:49:03.416Z,5.75
2022-10-03T00:50:03.428Z,5.75
2022-10-03T00:51:03.396Z,5.76
2022-10-03T00:52:03.418Z,5.76
2022-10-03T00:53:03.398Z,5.78
2022-10-03T00:54:03.386Z,5.79
2022-10-03T00:55:04.257Z,5.79
2022-10-03T00:56:03.376Z,5.79
2022-10-03T00:57:03.335Z,5.79
2022-10-03T00:58:03.336Z,5.82
2022-10-03T00:59:03.319Z,5.81
2022-10-03T01:00:03.359Z,5.83
2022-10-03T01:01:03.352Z,5.82
2022-10-03T01:02:03.382Z,5.85
2022-10-03T01:03:03.266Z,5.83
2022-10-03T01:04:03.275Z,5.86
2022-10-03T01:05:03.266Z,5.85
2022-10-03T01:06:03.256Z,5.89
2022-10-03T01:07:03.235Z,5.86
2022-10-03T01:08:03.226Z,5.89
2022-10-03T01:09:03.203Z,5.89
2022-10-03T01:10:03.215Z,5.90
2022-10-03T01:11:03.177Z,5.90
2022-10-03T01:12:03.183Z,5.90
2022-10-03T01:13:03.164Z,5.90
2022-10-03T01:14:03.164Z,5.91
2022-10-03T01:15:03.877Z,5.91
2022-10-03T01:16:03.199Z,5.93
2022-10-03T01:17:03.144Z,5.93
2022-10-03T01:18:03.245Z,5.94
2022-10-03T01:19:03.086Z,5.93
2022-10-03T01:20:03.094Z,5.94
2022-10-03T01:21:03.066Z,5.94
2022-10-03T01:22:03.074Z,5.94
2022-10-03T01:23:03.066Z,5.94
2022-10-03T01:24:03.053Z,5.93
2022-10-03T01:25:03.016Z,5.93
2022-10-03T01:26:03.023Z,5.93
2022-10-03T01:27:02.995Z,5.90
2022-10-03T01:28:03.039Z,5.86
2022-10-03T01:29:02.975Z,5.89
2022-10-03T01:30:02.975Z,5.89
2022-10-03T01:31:03.037Z,5.86
2022-10-03T01:32:03.593Z,5.86
2022-10-03T01:33:02.932Z,5.83
2022-10-03T01:34:02.934Z,5.81
2022-10-03T01:35:02.933Z,5.79
2022-10-03T01:36:03.653Z,5.82
2022-10-03T01:37:02.916Z,5.82
2022-10-03T01:38:02.909Z,5.81
2022-10-03T01:39:02.872Z,5.83
2022-10-03T01:40:02.935Z,5.83
2022-10-03T01:41:02.844Z,5.82
2022-10-03T01:42:02.847Z,5.83
2022-10-03T01:43:02.814Z,5.83
2022-10-03T01:44:02.824Z,5.83
2022-10-03T01:45:02.794Z,5.83
2022-10-03T01:46:02.803Z,5.83
2022-10-03T01:47:02.832Z,5.83
2022-10-03T01:48:02.783Z,5.83
2022-10-03T01:49:02.742Z,5.83
2022-10-03T01:50:02.761Z,5.85
2022-10-03T01:51:02.734Z,5.82
2022-10-03T01:52:02.723Z,5.85
2022-10-03T01:53:02.712Z,5.83
2022-10-03T01:54:02.714Z,5.83
2022-10-03T01:55:02.685Z,5.83
2022-10-03T01:56:03.530Z,5.85
2022-10-03T01:57:02.764Z,5.85
2022-10-03T01:58:02.773Z,5.85
2022-10-03T01:59:02.634Z,5.89
2022-10-03T02:00:02.644Z,5.89
2022-10-03T02:01:02.688Z,5.89
2022-10-03T02:02:02.638Z,5.89
2022-10-03T02:03:02.613Z,5.89
2022-10-03T02:04:02.593Z,5.86
2022-10-03T02:05:03.102Z,5.89
2022-10-03T02:06:03.111Z,5.89
2022-10-03T02:07:02.547Z,5.90
2022-10-03T02:08:02.820Z,5.89
2022-10-03T02:09:03.308Z,5.86
2022-10-03T02:10:02.551Z,5.85
2022-10-03T02:11:02.500Z,5.85
2022-10-03T02:12:02.501Z,5.79
2022-10-03T02:13:02.472Z,5.76
2022-10-03T02:14:02.471Z,5.74
2022-10-03T02:15:02.476Z,5.76
2022-10-03T02:16:02.522Z,5.75
2022-10-03T02:17:02.450Z,5.78
2022-10-03T02:18:02.441Z,5.79
2022-10-03T02:19:02.402Z,5.81
2022-10-03T02:20:02.407Z,5.82
2022-10-03T02:21:02.380Z,5.81
2022-10-03T02:22:02.420Z,5.82
2022-10-03T02:23:02.376Z,5.82
2022-10-03T02:24:02.371Z,5.83
2022-10-03T02:25:02.341Z,5.85
2022-10-03T02:26:02.340Z,5.89
2022-10-03T02:27:02.320Z,5.90
2022-10-03T02:28:02.355Z,5.91
2022-10-03T02:29:02.301Z,5.94
2022-10-03T02:30:02.287Z,5.94
2022-10-03T02:31:02.301Z,5.97
2022-10-03T02:32:02.289Z,6.00
2022-10-03T02:33:02.242Z,6.00
2022-10-03T02:34:02.260Z,6.01
2022-10-03T02:35:02.229Z,6.03
2022-10-03T02:36:02.238Z,6.06
2022-10-03T02:37:02.925Z,6.06
2022-10-03T02:38:03.079Z,6.09
2022-10-03T02:39:02.180Z,6.11
2022-10-03T02:40:02.228Z,6.12
2022-10-03T02:41:02.159Z,6.14
2022-10-03T02:42:02.152Z,6.14
2022-10-03T02:43:02.132Z,6.15
2022-10-03T02:44:02.128Z,6.15
2022-10-03T02:45:02.107Z,6.17
2022-10-03T02:46:02.170Z,6.19
2022-10-03T02:47:02.088Z,6.19
2022-10-03T02:48:27.000Z,6.21
2022-10-03T02:49:03.059Z,6.21
2022-10-03T02:50:02.054Z,6.22
2022-10-03T02:51:02.039Z,6.25
2022-10-03T02:52:02.028Z,6.21
2022-10-03T02:53:02.178Z,6.21
2022-10-03T02:54:02.039Z,6.21
2022-10-03T02:55:01.987Z,6.22
2022-10-03T02:56:01.989Z,6.27
2022-10-03T02:57:02.789Z,6.30
2022-10-03T02:58:02.691Z,6.31
2022-10-03T02:59:01.945Z,6.33
2022-10-03T03:00:01.938Z,6.36
2022-10-03T03:01:01.975Z,6.36
2022-10-03T03:02:01.947Z,6.37
2022-10-03T03:03:01.908Z,6.38
2022-10-03T03:04:01.878Z,6.40
2022-10-03T03:05:01.877Z,6.43
2022-10-03T03:06:01.859Z,6.44
2022-10-03T03:07:01.856Z,6.49
2022-10-03T03:08:01.837Z,6.49
2022-10-03T03:09:01.888Z,6.51
2022-10-03T03:10:01.811Z,6.52
2022-10-03T03:11:01.835Z,6.52
2022-10-03T03:12:01.798Z,6.55
2022-10-03T03:13:01.796Z,6.56
2022-10-03T03:14:01.765Z,6.56
2022-10-03T03:15:01.778Z,6.56
2022-10-03T03:16:01.786Z,6.56
2022-10-03T03:17:01.751Z,6.56
2022-10-03T03:18:02.438Z,6.58
2022-10-03T03:19:01.858Z,6.58
2022-10-03T03:20:01.866Z,6.59
2022-10-03T03:21:01.695Z,6.62
2022-10-03T03:22:01.668Z,6.61
2022-10-03T03:23:01.671Z,6.62
2022-10-03T03:24:01.667Z,6.62
2022-10-03T03:25:01.665Z,6.62
2022-10-03T03:26:01.631Z,6.64
2022-10-03T03:27:01.628Z,6.64
2022-10-03T03:28:01.645Z,6.66
2022-10-03T03:29:01.596Z,6.66
2022-10-03T03:30:01.585Z,6.64
2022-10-03T03:31:01.594Z,6.64
2022-10-03T03:32:01.581Z,6.67
2022-10-03T03:33:01.562Z,6.67
2022-10-03T03:34:01.526Z,6.66
2022-10-03T03:35:01.534Z,6.67
2022-10-03T03:36:01.553Z,6.67
2022-10-03T03:37:01.565Z,6.69
2022-10-03T03:38:01.488Z,6.69
2022-10-03T03:39:01.502Z,6.70
2022-10-03T03:40:01.588Z,6.73
2022-10-03T03:41:01.463Z,6.73
2022-10-03T03:42:01.446Z,6.73
2022-10-03T03:43:01.447Z,6.76
2022-10-03T03:44:01.414Z,6.77
2022-10-03T03:45:01.414Z,6.77
2022-10-03T03:46:01.479Z,6.76
2022-10-03T03:47:01.395Z,6.76
2022-10-03T03:48:01.372Z,6.77
2022-10-03T03:49:01.372Z,6.79
2022-10-03T03:50:01.355Z,6.79
2022-10-03T03:51:01.345Z,6.81
2022-10-03T03:52:01.326Z,6.81
2022-10-03T03:53:01.324Z,6.85
2022-10-03T03:54:01.305Z,6.88
2022-10-03T03:55:01.331Z,6.88
2022-10-03T03:56:01.278Z,6.89
2022-10-03T03:57:01.303Z,6.89
2022-10-03T03:58:01.253Z,6.91
2022-10-03T03:59:01.613Z,6.89
2022-10-03T04:00:01.244Z,6.94
2022-10-03T04:01:01.255Z,6.92
2022-10-03T04:02:01.270Z,6.95
2022-10-03T04:03:01.205Z,6.95
2022-10-03T04:04:01.193Z,6.95
2022-10-03T04:05:01.196Z,6.97
2022-10-03T04:06:01.925Z,6.99
2022-10-03T04:07:01.174Z,7.02
2022-10-03T04:08:01.144Z,7.02
2022-10-03T04:09:01.146Z,7.03
2022-10-03T04:10:01.123Z,7.03
2022-10-03T04:11:01.825Z,7.05
2022-10-03T04:12:01.095Z,7.05
2022-10-03T04:13:01.116Z,7.05
2022-10-03T04:14:01.072Z,7.05
2022-10-03T04:15:01.081Z,7.05
2022-10-03T04:16:01.042Z,7.06
2022-10-03T04:17:01.054Z,7.09
2022-10-03T04:18:01.041Z,7.07
2022-10-03T04:19:01.040Z,7.10
2022-10-03T04:20:01.747Z,7.12
2022-10-03T04:21:01.022Z,7.13
2022-10-03T04:22:00.992Z,7.15
2022-10-03T04:23:00.982Z,7.16
2022-10-03T04:24:00.951Z,7.17
2022-10-03T04:25:00.961Z,7.17
2022-10-03T04:26:00.961Z,7.20
2022-10-03T04:27:00.943Z,7.21
2022-10-03T04:28:00.965Z,7.24
2022-10-03T04:29:00.913Z,7.25
2022-10-03T04:30:00.892Z,7.27
2022-10-03T04:31:00.901Z,7.28
2022-10-03T04:32:00.926Z,7.30
2022-10-03T04:33:00.871Z,7.31
2022-10-03T04:34:00.852Z,7.31
2022-10-03T04:35:00.862Z,7.31
2022-10-03T04:36:00.821Z,7.32
2022-10-03T04:37:00.833Z,7.34
2022-10-03T04:38:00.811Z,7.34
2022-10-03T04:39:00.844Z,7.34
2022-10-03T04:40:01.481Z,7.35
2022-10-03T04:41:00.985Z,7.37
2022-10-03T04:42:00.751Z,7.37
2022-10-03T04:43:00.766Z,7.40
2022-10-03T04:44:00.733Z,7.40
2022-10-03T04:45:00.751Z,7.42
2022-10-03T04:46:00.751Z,7.43
2022-10-03T04:47:00.720Z,7.45
2022-10-03T04:48:00.690Z,7.46
2022-10-03T04:49:00.694Z,7.49
2022-10-03T04:50:01.241Z,7.52
2022-10-03T04:51:00.662Z,7.52
2022-10-03T04:52:00.638Z,7.53
2022-10-03T04:53:00.641Z,7.53
2022-10-03T04:54:00.611Z,7.57
2022-10-03T04:55:00.634Z,7.58
2022-10-03T04:56:00.621Z,7.58
2022-10-03T04:57:00.591Z,7.60
2022-10-03T04:58:04.887Z,7.60
2022-10-03T04:59:00.580Z,7.61
2022-10-03T05:00:00.568Z,7.64
2022-10-03T05:01:00.617Z,7.64
2022-10-03T05:02:00.594Z,7.67
2022-10-03T05:03:00.528Z,7.68
2022-10-03T05:04:00.511Z,7.68
2022-10-03T05:05:00.507Z,7.69
2022-10-03T05:06:00.501Z,7.69
2022-10-03T05:07:00.491Z,7.71
2022-10-03T05:08:00.460Z,7.69
2022-10-03T05:09:00.470Z,7.72
2022-10-03T05:10:05.346Z,7.72
2022-10-03T05:11:01.611Z,7.72
2022-10-03T05:12:00.469Z,7.74
2022-10-03T05:13:00.447Z,7.74
2022-10-03T05:14:00.388Z,7.77
2022-10-03T05:15:00.401Z,7.77
2022-10-03T05:16:00.371Z,7.77
2022-10-03T05:17:00.439Z,7.75
2022-10-03T05:18:00.361Z,7.79
2022-10-03T05:19:00.374Z,7.80
2022-10-03T05:20:01.089Z,7.80
2022-10-03T05:21:01.257Z,7.80
2022-10-03T05:22:00.319Z,7.80
2022-10-03T05:23:00.306Z,7.82
2022-10-03T05:24:00.318Z,7.83
2022-10-03T05:25:00.279Z,7.83
2022-10-03T05:26:17.668Z,7.85
2022-10-03T05:27:01.258Z,7.85
2022-10-03T05:28:00.293Z,7.86
2022-10-03T05:29:00.261Z,7.85
2022-10-03T05:30:00.236Z,7.87
2022-10-03T05:31:00.209Z,7.86
2022-10-03T05:32:00.255Z,7.87
2022-10-03T05:33:02.839Z,7.89
2022-10-03T05:34:00.179Z,7.89
2022-10-03T05:35:00.166Z,7.86
2022-10-03T05:36:00.148Z,7.86
2022-10-03T05:37:00.140Z,7.85
2022-10-03T05:38:00.140Z,7.86
2022-10-03T05:39:00.120Z,7.86
2022-10-03T05:40:00.113Z,7.86
2022-10-03T05:41:00.108Z,7.87
2022-10-03T05:42:21.604Z,7.89
2022-10-03T05:43:01.077Z,7.90
2022-10-03T05:44:00.048Z,7.92
2022-10-03T05:45:00.057Z,7.90
2022-10-03T05:46:00.099Z,7.95
2022-10-03T05:47:00.038Z,7.95
2022-10-03T05:48:00.036Z,7.97
2022-10-03T05:49:00.036Z,7.98
2022-10-03T05:49:59.989Z,8.01
2022-10-03T05:50:59.985Z,8.04
2022-10-03T05:51:59.959Z,8.04
2022-10-03T05:52:59.966Z,8.05
2022-10-03T05:53:59.937Z,8.08
2022-10-03T05:54:59.947Z,8.10
2022-10-03T05:55:59.921Z,8.11
2022-10-03T05:56:59.918Z,8.12
2022-10-03T05:57:59.897Z,8.15
2022-10-03T05:58:59.896Z,8.16
2022-10-03T05:59:59.876Z,8.19
2022-10-03T06:01:00.655Z,8.20
2022-10-03T06:01:59.895Z,8.22
2022-10-03T06:02:59.924Z,8.22
2022-10-03T06:04:03.829Z,8.25
2022-10-03T06:05:00.828Z,8.26
2022-10-03T06:05:59.805Z,8.28
2022-10-03T06:06:59.810Z,8.28
2022-10-03T06:07:59.784Z,8.29
2022-10-03T06:08:59.793Z,8.30
2022-10-03T06:09:59.756Z,8.30
2022-10-03T06:10:59.771Z,8.34
2022-10-03T06:11:59.736Z,8.37
2022-10-03T06:12:59.735Z,8.36
2022-10-03T06:13:59.715Z,8.40
2022-10-03T06:14:59.716Z,8.41
2022-10-03T06:15:59.785Z,8.41
2022-10-03T06:16:59.697Z,8.44
2022-10-03T06:17:59.696Z,8.45
2022-10-03T06:18:59.673Z,8.50
2022-10-03T06:19:59.650Z,8.50
2022-10-03T06:20:59.655Z,8.52
2022-10-03T06:21:59.635Z,8.55
2022-10-03T06:23:04.913Z,8.56
2022-10-03T06:24:00.605Z,8.59
2022-10-03T06:24:59.608Z,8.61
2022-10-03T06:25:59.594Z,8.62
2022-10-03T06:26:59.576Z,8.65
2022-10-03T06:27:59.599Z,8.68
2022-10-03T06:28:59.583Z,8.68
2022-10-03T06:29:59.544Z,8.68
2022-10-03T06:30:59.585Z,8.70
2022-10-03T06:31:59.509Z,8.71
2022-10-03T06:32:59.514Z,8.73
2022-10-03T06:33:59.524Z,8.76
2022-10-03T06:34:59.494Z,8.79
2022-10-03T06:35:59.475Z,8.81
2022-10-03T06:36:59.469Z,8.84
2022-10-03T06:37:59.452Z,8.87
2022-10-03T06:38:59.459Z,8.91
2022-10-03T06:39:59.424Z,8.94
2022-10-03T06:40:59.453Z,8.95
2022-10-03T06:41:59.429Z,8.98
2022-10-03T06:42:59.455Z,9.02
2022-10-03T06:43:59.377Z,9.05
2022-10-03T06:44:59.374Z,9.10
2022-10-03T06:45:59.364Z,9.11
2022-10-03T06:46:59.384Z,9.13
2022-10-03T06:47:59.325Z,9.13
2022-10-03T06:48:59.334Z,9.18
2022-10-03T06:49:59.304Z,9.21
2022-10-03T06:50:59.313Z,9.21
2022-10-03T06:51:59.311Z,9.24
2022-10-03T06:52:59.293Z,9.26
2022-10-03T06:53:59.268Z,9.29
2022-10-03T06:54:59.274Z,9.31
2022-10-03T06:55:59.245Z,9.32
2022-10-03T06:56:59.254Z,9.36
2022-10-03T06:57:59.215Z,9.39
2022-10-03T06:58:59.223Z,9.42
2022-10-03T06:59:59.206Z,9.46
2022-10-03T07:00:59.293Z,9.48
2022-10-03T07:01:59.264Z,9.50
2022-10-03T07:02:59.947Z,9.53
2022-10-03T07:03:59.274Z,9.56
2022-10-03T07:04:59.184Z,9.58
2022-10-03T07:05:59.123Z,9.64
2022-10-03T07:06:59.305Z,9.68
2022-10-03T07:07:59.124Z,9.68
2022-10-03T07:08:59.114Z,9.71
2022-10-03T07:09:59.082Z,9.74
2022-10-03T07:10:59.085Z,9.76
2022-10-03T07:11:59.064Z,9.81
2022-10-03T07:12:59.085Z,9.84
2022-10-03T07:13:59.083Z,9.90
2022-10-03T07:14:59.044Z,9.93
2022-10-03T07:16:24.060Z,9.96
2022-10-03T07:17:00.079Z,10.01
2022-10-03T07:17:59.004Z,10.07
2022-10-03T07:18:59.013Z,10.08
2022-10-03T07:19:58.981Z,10.11
2022-10-03T07:20:58.953Z,10.11
2022-10-03T07:21:58.954Z,10.11
2022-10-03T07:22:58.934Z,10.09
2022-10-03T07:23:58.943Z,10.14
2022-10-03T07:24:58.924Z,10.15
2022-10-03T07:25:58.911Z,10.20
2022-10-03T07:26:58.893Z,10.23
2022-10-03T07:27:58.932Z,10.27
2022-10-03T07:28:58.865Z,10.32
2022-10-03T07:29:58.966Z,10.38
2022-10-03T07:30:59.720Z,10.41
2022-10-03T07:31:58.862Z,10.44
2022-10-03T07:32:58.821Z,10.45
2022-10-03T07:33:58.820Z,10.52
2022-10-03T07:34:58.792Z,10.56
2022-10-03T07:35:58.818Z,10.64
2022-10-03T07:36:58.814Z,10.68
2022-10-03T07:37:58.787Z,10.73
2022-10-03T07:38:58.743Z,10.79
2022-10-03T07:39:58.752Z,10.85
2022-10-03T07:40:58.740Z,10.89
2022-10-03T07:41:58.726Z,10.92
2022-10-03T07:42:58.722Z,10.97
2022-10-03T07:43:58.711Z,11.04
2022-10-03T07:44:59.250Z,11.07
2022-10-03T07:45:58.745Z,11.11
2022-10-03T07:46:58.663Z,11.14
2022-10-03T07:47:58.662Z,11.15
2022-10-03T07:48:58.662Z,11.19
2022-10-03T07:49:58.645Z,11.15
2022-10-03T07:50:58.632Z,11.17
2022-10-03T07:51:58.612Z,11.21
2022-10-03T07:52:58.602Z,11.24
2022-10-03T07:53:58.592Z,11.27
2022-10-03T07:54:58.574Z,11.25
2022-10-03T07:55:58.602Z,11.28
2022-10-03T07:56:58.562Z,11.32
2022-10-03T07:57:58.621Z,11.33
2022-10-03T07:58:58.594Z,11.40
2022-10-03T07:59:58.522Z,11.46
2022-10-03T08:00:58.501Z,11.51
2022-10-03T08:01:58.504Z,11.55
2022-10-03T08:02:58.516Z,11.61
2022-10-03T08:03:58.563Z,11.67
2022-10-03T08:04:58.481Z,11.75
2022-10-03T08:05:58.460Z,11.78
2022-10-03T08:06:58.442Z,11.82
2022-10-03T08:07:58.439Z,11.86
2022-10-03T08:08:58.409Z,11.88
2022-10-03T08:09:58.432Z,11.95
2022-10-03T08:10:58.393Z,11.98
2022-10-03T08:11:58.390Z,11.99
2022-10-03T08:12:58.371Z,11.99
2022-10-03T08:13:58.375Z,12.02
2022-10-03T08:14:58.363Z,12.07
2022-10-03T08:15:58.419Z,12.12
2022-10-03T08:16:58.332Z,12.07
2022-10-03T08:17:58.341Z,12.10
2022-10-03T08:18:58.301Z,12.10
2022-10-03T08:19:58.311Z,12.10
2022-10-03T08:20:58.292Z,12.12
2022-10-03T08:21:58.293Z,12.16
2022-10-03T08:22:58.286Z,12.21
2022-10-03T08:23:58.291Z,12.27
2022-10-03T08:25:01.892Z,12.32
2022-10-03T08:25:58.350Z,12.35
2022-10-03T08:26:58.211Z,12.41
2022-10-03T08:27:58.258Z,12.46
2022-10-03T08:28:58.212Z,12.50
2022-10-03T08:29:58.191Z,12.54
2022-10-03T08:30:58.230Z,12.59
2022-10-03T08:31:58.180Z,12.60
2022-10-03T08:32:58.141Z,12.64
2022-10-03T08:33:58.159Z,12.70
2022-10-03T08:34:58.271Z,12.71
2022-10-03T08:35:58.130Z,12.74
2022-10-03T08:36:58.101Z,12.79
2022-10-03T08:37:58.131Z,12.82
2022-10-03T08:38:58.082Z,12.86
2022-10-03T08:39:58.113Z,12.90
2022-10-03T08:40:58.051Z,12.95
2022-10-03T08:41:58.063Z,13.01
2022-10-03T08:42:58.031Z,13.08
2022-10-03T08:43:58.079Z,13.19
2022-10-03T08:44:58.703Z,13.25
2022-10-03T08:45:58.751Z,13.33
2022-10-03T08:46:58.091Z,13.49
2022-10-03T08:47:57.992Z,13.52
2022-10-03T08:48:57.970Z,13.49
2022-10-03T08:50:01.753Z,13.51
2022-10-03T08:50:58.991Z,13.54
2022-10-03T08:51:57.956Z,13.57
2022-10-03T08:52:57.930Z,13.62
2022-10-03T08:53:57.922Z,13.55
2022-10-03T08:54:57.907Z,13.55
2022-10-03T08:55:57.915Z,13.57
2022-10-03T08:56:58.240Z,13.60
2022-10-03T08:57:57.883Z,13.60
2022-10-03T08:58:57.863Z,13.59
2022-10-03T08:59:57.864Z,13.55
2022-10-03T09:00:57.831Z,13.52
2022-10-03T09:01:57.910Z,13.48
2022-10-03T09:03:28.209Z,13.44
2022-10-03T09:03:58.878Z,13.42
2022-10-03T09:04:57.792Z,13.44
2022-10-03T09:05:57.852Z,13.45
2022-10-03T09:07:17.546Z,13.49
2022-10-03T09:07:58.912Z,13.49
2022-10-03T09:08:58.452Z,13.54
2022-10-03T09:09:58.469Z,13.57
2022-10-03T09:10:57.722Z,13.62
2022-10-03T09:11:57.720Z,13.66
2022-10-03T09:12:57.810Z,13.70
2022-10-03T09:13:57.733Z,13.75
2022-10-03T09:14:57.661Z,13.78
2022-10-03T09:15:57.715Z,13.73
2022-10-03T09:16:57.651Z,13.77
2022-10-03T09:17:57.651Z,13.81
2022-10-03T09:18:57.642Z,13.85
2022-10-03T09:19:57.632Z,13.89
2022-10-03T09:20:57.613Z,13.95
2022-10-03T09:21:57.623Z,13.92
2022-10-03T09:22:58.502Z,13.85
2022-10-03T09:23:57.601Z,13.84
2022-10-03T09:24:57.552Z,13.84
2022-10-03T09:25:57.595Z,13.85
2022-10-03T09:26:57.583Z,13.87
2022-10-03T09:27:57.554Z,13.92
2022-10-03T09:28:57.504Z,13.95
2022-10-03T09:29:57.512Z,13.96
2022-10-03T09:30:57.528Z,13.97
2022-10-03T09:31:57.483Z,13.99
2022-10-03T09:32:57.465Z,14.00
2022-10-03T09:33:57.452Z,14.03
2022-10-03T09:34:57.623Z,14.07
2022-10-03T09:35:57.431Z,14.12
2022-10-03T09:36:57.402Z,14.15
2022-10-03T09:37:57.410Z,14.15
2022-10-03T09:38:57.391Z,14.18
2022-10-03T09:39:57.407Z,14.24
2022-10-03T09:40:57.542Z,14.37
2022-10-03T09:41:57.374Z,14.47
2022-10-03T09:42:57.332Z,14.58
2022-10-03T09:43:57.363Z,14.70
2022-10-03T09:44:57.363Z,14.78
2022-10-03T09:45:57.421Z,14.84
2022-10-03T09:46:57.629Z,14.88
2022-10-03T09:47:57.623Z,14.89
2022-10-03T09:48:57.263Z,14.96
2022-10-03T09:49:57.281Z,15.09
2022-10-03T09:50:57.253Z,15.25
2022-10-03T09:51:57.261Z,15.41
2022-10-03T09:52:57.222Z,15.59
2022-10-03T09:53:57.257Z,15.71
2022-10-03T09:54:57.211Z,15.78
2022-10-03T09:55:57.266Z,15.86
2022-10-03T09:56:57.293Z,16.00
2022-10-03T09:57:57.226Z,16.05
2022-10-03T09:58:57.150Z,16.05
2022-10-03T09:59:58.021Z,16.12
2022-10-03T10:00:57.173Z,16.17
2022-10-03T10:01:57.135Z,16.25
2022-10-03T10:02:57.879Z,16.45
2022-10-03T10:03:57.157Z,16.58
2022-10-03T10:04:57.139Z,16.64
2022-10-03T10:05:57.082Z,16.73
2022-10-03T10:06:57.142Z,16.68
2022-10-03T10:07:57.088Z,16.52
2022-10-03T10:08:57.056Z,16.15
2022-10-03T10:09:57.034Z,16.08
2022-10-03T10:10:57.031Z,15.86
2022-10-03T10:11:57.012Z,15.82
2022-10-03T10:12:56.989Z,15.93
2022-10-03T10:14:11.231Z,16.09
2022-10-03T10:14:58.010Z,16.12
2022-10-03T10:15:57.046Z,16.05
2022-10-03T10:16:56.950Z,16.04
2022-10-03T10:17:56.953Z,16.07
2022-10-03T10:18:56.924Z,16.07
2022-10-03T10:19:56.943Z,16.02
2022-10-03T10:20:56.903Z,16.01
2022-10-03T10:21:56.902Z,16.12
2022-10-03T10:22:56.912Z,16.25
2022-10-03T10:23:56.883Z,16.15
2022-10-03T10:24:57.254Z,16.01
2022-10-03T10:25:57.273Z,15.82
2022-10-03T10:26:57.173Z,15.74
2022-10-03T10:27:56.996Z,15.68
2022-10-03T10:28:56.833Z,15.64
2022-10-03T10:29:56.814Z,15.62
2022-10-03T10:30:56.842Z,15.57
2022-10-03T10:31:56.798Z,15.62
2022-10-03T10:32:56.783Z,15.72
2022-10-03T10:33:56.778Z,15.87
2022-10-03T10:34:56.788Z,15.96
2022-10-03T10:35:56.761Z,16.08
2022-10-03T10:36:56.727Z,16.15
2022-10-03T10:37:56.734Z,16.15
2022-10-03T10:38:56.703Z,16.28
2022-10-03T10:39:56.701Z,16.41
2022-10-03T10:40:59.805Z,16.57
2022-10-03T10:41:56.673Z,16.58
2022-10-03T10:42:56.654Z,16.68
2022-10-03T10:43:56.681Z,16.79
2022-10-03T10:44:56.637Z,16.91
2022-10-03T10:45:56.644Z,16.96
2022-10-03T10:46:56.759Z,17.14
2022-10-03T10:47:57.407Z,17.34
2022-10-03T10:49:02.823Z,17.33
2022-10-03T10:49:58.343Z,17.28
2022-10-03T10:50:56.614Z,17.31
2022-10-03T10:51:56.571Z,17.36
2022-10-03T10:52:56.564Z,17.48
2022-10-03T10:53:56.555Z,17.58
2022-10-03T10:54:56.522Z,17.68
2022-10-03T10:55:56.516Z,17.75
2022-10-03T10:56:56.524Z,17.72
2022-10-03T10:57:56.544Z,17.68
2022-10-03T10:58:56.475Z,17.64
2022-10-03T10:59:56.477Z,17.70
2022-10-03T11:00:56.527Z,17.64
2022-10-03T11:01:56.491Z,17.64
2022-10-03T11:02:56.436Z,17.59
2022-10-03T11:03:56.487Z,17.58
2022-10-03T11:04:56.454Z,17.58
2022-10-03T11:05:56.414Z,17.59
2022-10-03T11:06:56.383Z,17.70
2022-10-03T11:07:56.405Z,17.71
2022-10-03T11:08:57.284Z,17.70
2022-10-03T11:09:56.377Z,17.62
2022-10-03T11:10:56.347Z,17.55
2022-10-03T11:11:56.335Z,17.49
2022-10-03T11:12:56.315Z,17.49
2022-10-03T11:13:57.075Z,17.54
2022-10-03T11:14:56.306Z,17.55
2022-10-03T11:15:56.346Z,17.36
2022-10-03T11:16:56.265Z,17.33
2022-10-03T11:17:56.317Z,17.40
2022-10-03T11:18:56.255Z,17.55
2022-10-03T11:19:56.265Z,17.71
2022-10-03T11:20:56.215Z,17.72
2022-10-03T11:21:56.227Z,17.72
2022-10-03T11:22:58.916Z,17.89
2022-10-03T11:23:56.218Z,18.00
2022-10-03T11:24:57.028Z,18.03
2022-10-03T11:25:56.186Z,18.00
2022-10-03T11:26:56.228Z,17.87
2022-10-03T11:27:56.397Z,17.99
2022-10-03T11:28:56.136Z,18.08
2022-10-03T11:29:56.134Z,18.08
2022-10-03T11:30:56.116Z,18.07
2022-10-03T11:31:56.155Z,17.92
2022-10-03T11:32:56.087Z,17.89
2022-10-03T11:33:56.086Z,17.84
2022-10-03T11:34:56.076Z,17.72
2022-10-03T11:35:56.067Z,17.58
2022-10-03T11:36:56.045Z,17.41
2022-10-03T11:37:56.026Z,17.34
2022-10-03T11:38:56.036Z,17.33
2022-10-03T11:39:55.996Z,17.28
2022-10-03T11:40:56.058Z,17.23
2022-10-03T11:41:55.987Z,17.22
2022-10-03T11:42:55.977Z,17.23
2022-10-03T11:44:01.410Z,17.34
2022-10-03T11:44:56.959Z,17.48
2022-10-03T11:45:56.000Z,17.55
2022-10-03T11:46:55.936Z,17.62
2022-10-03T11:47:55.916Z,17.59
2022-10-03T11:48:55.959Z,17.64
2022-10-03T11:49:55.907Z,17.49
2022-10-03T11:50:55.917Z,17.41
2022-10-03T11:51:55.857Z,17.48
2022-10-03T11:52:55.864Z,17.26
2022-10-03T11:54:13.027Z,17.19
2022-10-03T11:54:56.859Z,17.26
2022-10-03T11:55:55.829Z,17.31
2022-10-03T11:56:55.848Z,17.28
2022-10-03T11:57:56.677Z,17.16
2022-10-03T11:58:55.808Z,17.19
2022-10-03T11:59:55.767Z,17.12
2022-10-03T12:00:55.818Z,17.04
2022-10-03T12:01:55.887Z,16.91
2022-10-03T12:02:55.843Z,16.91
2022-10-03T12:03:55.727Z,16.76
2022-10-03T12:04:55.794Z,16.75
2022-10-03T12:05:55.717Z,16.86
2022-10-03T12:06:55.699Z,16.96
2022-10-03T12:07:58.394Z,17.03
2022-10-03T12:08:55.695Z,17.11
2022-10-03T12:09:56.430Z,17.26
2022-10-03T12:10:55.668Z,17.34
2022-10-03T12:11:55.627Z,17.33
2022-10-03T12:12:55.630Z,17.38
2022-10-03T12:13:55.642Z,17.51
2022-10-03T12:14:55.633Z,17.72
2022-10-03T12:15:55.598Z,17.90
2022-10-03T12:16:55.647Z,18.08
2022-10-03T12:17:55.705Z,18.03
2022-10-03T12:18:55.628Z,18.08
2022-10-03T12:19:55.548Z,18.21
2022-10-03T12:20:55.570Z,18.33
2022-10-03T12:21:55.517Z,18.44
2022-10-03T12:22:56.310Z,18.47
2022-10-03T12:23:55.519Z,18.57
2022-10-03T12:24:55.497Z,18.63
2022-10-03T12:25:55.507Z,18.81
2022-10-03T12:26:55.657Z,18.85
2022-10-03T12:27:55.494Z,18.75
2022-10-03T12:28:55.452Z,18.73
2022-10-03T12:29:55.649Z,18.75
2022-10-03T12:30:55.806Z,18.72
2022-10-03T12:31:55.519Z,18.70
2022-10-03T12:32:55.410Z,18.73
2022-10-03T12:33:55.398Z,18.78
2022-10-03T12:34:55.392Z,18.81
2022-10-03T12:35:55.360Z,18.82
2022-10-03T12:36:55.386Z,18.76
2022-10-03T12:37:55.341Z,18.57
2022-10-03T12:38:55.373Z,18.35
2022-10-03T12:39:55.309Z,18.29
2022-10-03T12:40:55.399Z,18.25
2022-10-03T12:41:55.301Z,18.18
2022-10-03T12:42:55.310Z,18.11
2022-10-03T12:43:55.276Z,18.14
2022-10-03T12:44:55.373Z,18.17
2022-10-03T12:45:55.318Z,18.20
2022-10-03T12:46:57.830Z,18.26
2022-10-03T12:47:56.748Z,18.20
2022-10-03T12:48:55.222Z,18.12
2022-10-03T12:49:56.038Z,17.97
2022-10-03T12:50:55.380Z,17.75
2022-10-03T12:51:55.199Z,17.72
2022-10-03T12:52:55.192Z,17.70
2022-10-03T12:53:55.151Z,17.70
2022-10-03T12:54:55.158Z,17.74
2022-10-03T12:55:55.134Z,17.77
2022-10-03T12:56:55.141Z,17.81
2022-10-03T12:57:55.120Z,17.78
2022-10-03T12:58:55.122Z,17.64
2022-10-03T12:59:55.632Z,17.62
2022-10-03T13:00:55.153Z,17.59
2022-10-03T13:01:55.094Z,17.59
2022-10-03T13:02:55.095Z,17.52
2022-10-03T13:03:55.269Z,17.48
2022-10-03T13:04:55.044Z,17.40
2022-10-03T13:05:55.012Z,17.22